sensor_id;sensor_type;location;lat;lon;timestamp;temperature;humidity
42841;DHT22;28491;46.898;7.660;2023-10-08T00:01:07;12.30;1.00
42841;DHT22;28491;46.898;7.660;2023-10-08T00:03:36;12.30;1.00
42841;DHT22;28491;46.898;7.660;2023-10-08T00:06:03;12.40;99.90
42841;DHT22;28491;46.898;7.660;2023-10-08T00:08:40;12.30;1.00
42841;DHT22;28491;46.898;7.660;2023-10-08T00:11:05;12.30;99.10
42841;DHT22;28491;46.898;7.660;2023-10-08T00:13:32;12.40;99.90
42841;DHT22;28491;46.898;7.660;2023-10-08T00:16:07;12.40;98.40
42841;DHT22;28491;46.898;7.660;2023-10-08T00:18:37;12.40;96.00
42841;DHT22;28491;46.898;7.660;2023-10-08T00:21:03;12.40;94.30
42841;DHT22;28491;46.898;7.660;2023-10-08T00:23:38;12.30;94.20
42841;DHT22;28491;46.898;7.660;2023-10-08T00:26:07;12.40;92.20
42841;DHT22;28491;46.898;7.660;2023-10-08T00:28:33;12.40;89.40
42841;DHT22;28491;46.898;7.660;2023-10-08T00:30:58;12.40;92.60
42841;DHT22;28491;46.898;7.660;2023-10-08T00:33:31;12.30;93.40
42841;DHT22;28491;46.898;7.660;2023-10-08T00:35:57;12.30;97.00
42841;DHT22;28491;46.898;7.660;2023-10-08T00:38:22;12.30;95.10
42841;DHT22;28491;46.898;7.660;2023-10-08T00:40:51;12.40;92.00
42841;DHT22;28491;46.898;7.660;2023-10-08T00:45:57;12.20;99.90
42841;DHT22;28491;46.898;7.660;2023-10-08T00:48:24;12.10;93.50
42841;DHT22;28491;46.898;7.660;2023-10-08T00:50:53;12.00;98.80
42841;DHT22;28491;46.898;7.660;2023-10-08T00:53:35;12.00;95.40
42841;DHT22;28491;46.898;7.660;2023-10-08T00:56:05;12.00;99.90
42841;DHT22;28491;46.898;7.660;2023-10-08T00:58:39;12.00;98.80
42841;DHT22;28491;46.898;7.660;2023-10-08T01:01:06;12.00;99.90
42841;DHT22;28491;46.898;7.660;2023-10-08T01:03:36;12.00;99.90
42841;DHT22;28491;46.898;7.660;2023-10-08T01:06:04;12.00;98.60
42841;DHT22;28491;46.898;7.660;2023-10-08T01:08:33;12.00;98.30
42841;DHT22;28491;46.898;7.660;2023-10-08T01:13:45;11.90;1.00
42841;DHT22;28491;46.898;7.660;2023-10-08T01:16:12;11.90;99.90
42841;DHT22;28491;46.898;7.660;2023-10-08T01:18:38;11.90;99.90
42841;DHT22;28491;46.898;7.660;2023-10-08T01:21:08;11.90;1.00
42841;DHT22;28491;46.898;7.660;2023-10-08T01:23:39;11.80;99.90
42841;DHT22;28491;46.898;7.660;2023-10-08T01:26:04;11.70;1.00
42841;DHT22;28491;46.898;7.660;2023-10-08T01:28:36;11.70;1.00
42841;DHT22;28491;46.898;7.660;2023-10-08T01:31:02;11.70;1.00
42841;DHT22;28491;46.898;7.660;2023-10-08T01:33:29;11.70;1.00
42841;DHT22;28491;46.898;7.660;2023-10-08T01:35:56;11.60;1.00
42841;DHT22;28491;46.898;7.660;2023-10-08T01:38:29;11.50;1.00
42841;DHT22;28491;46.898;7.660;2023-10-08T01:40:54;11.60;1.00
42841;DHT22;28491;46.898;7.660;2023-10-08T01:43:21;11.60;1.00
42841;DHT22;28491;46.898;7.660;2023-10-08T01:45:47;11.60;1.00
42841;DHT22;28491;46.898;7.660;2023-10-08T01:48:15;11.60;1.00
42841;DHT22;28491;46.898;7.660;2023-10-08T01:51:01;11.50;1.00
42841;DHT22;28491;46.898;7.660;2023-10-08T01:53:29;11.50;1.00
42841;DHT22;28491;46.898;7.660;2023-10-08T01:55:56;11.50;1.00
42841;DHT22;28491;46.898;7.660;2023-10-08T01:58:23;11.60;53.80
42841;DHT22;28491;46.898;7.660;2023-10-08T02:00:49;11.60;1.00
42841;DHT22;28491;46.898;7.660;2023-10-08T02:03:15;11.70;1.00
42841;DHT22;28491;46.898;7.660;2023-10-08T02:05:43;11.70;1.00
42841;DHT22;28491;46.898;7.660;2023-10-08T02:08:10;11.60;1.00
42841;DHT22;28491;46.898;7.660;2023-10-08T02:10:36;11.60;1.00
42841;DHT22;28491;46.898;7.660;2023-10-08T02:13:01;11.50;1.00
42841;DHT22;28491;46.898;7.660;2023-10-08T02:15:27;11.50;1.00
42841;DHT22;28491;46.898;7.660;2023-10-08T02:17:52;11.50;1.00
42841;DHT22;28491;46.898;7.660;2023-10-08T02:20:20;11.50;1.00
42841;DHT22;28491;46.898;7.660;2023-10-08T02:22:47;11.50;1.00
42841;DHT22;28491;46.898;7.660;2023-10-08T02:25:14;11.50;1.00
42841;DHT22;28491;46.898;7.660;2023-10-08T02:27:40;11.50;1.00
42841;DHT22;28491;46.898;7.660;2023-10-08T02:30:07;11.50;1.00
42841;DHT22;28491;46.898;7.660;2023-10-08T02:32:34;11.50;1.00
42841;DHT22;28491;46.898;7.660;2023-10-08T02:35:02;11.50;1.00
42841;DHT22;28491;46.898;7.660;2023-10-08T02:37:27;11.60;1.00
42841;DHT22;28491;46.898;7.660;2023-10-08T02:39:53;11.50;1.00
42841;DHT22;28491;46.898;7.660;2023-10-08T02:42:19;11.60;1.00
42841;DHT22;28491;46.898;7.660;2023-10-08T02:44:45;11.50;97.80
42841;DHT22;28491;46.898;7.660;2023-10-08T02:47:11;11.50;96.40
42841;DHT22;28491;46.898;7.660;2023-10-08T02:49:46;11.50;92.80
42841;DHT22;28491;46.898;7.660;2023-10-08T02:52:13;11.50;97.20
42841;DHT22;28491;46.898;7.660;2023-10-08T02:54:41;11.60;99.90
42841;DHT22;28491;46.898;7.660;2023-10-08T02:57:06;11.60;1.00
42841;DHT22;28491;46.898;7.660;2023-10-08T02:59:39;11.70;1.00
42841;DHT22;28491;46.898;7.660;2023-10-08T03:02:12;11.60;1.00
42841;DHT22;28491;46.898;7.660;2023-10-08T03:04:44;11.60;94.70
42841;DHT22;28491;46.898;7.660;2023-10-08T03:07:13;11.50;1.00
42841;DHT22;28491;46.898;7.660;2023-10-08T03:09:47;11.60;1.00
42841;DHT22;28491;46.898;7.660;2023-10-08T03:12:15;11.60;99.10
42841;DHT22;28491;46.898;7.660;2023-10-08T03:14:40;11.60;96.00
42841;DHT22;28491;46.898;7.660;2023-10-08T03:17:27;11.60;79.90
42841;DHT22;28491;46.898;7.660;2023-10-08T03:19:53;11.60;98.90
42841;DHT22;28491;46.898;7.660;2023-10-08T03:22:26;11.60;99.90
42841;DHT22;28491;46.898;7.660;2023-10-08T03:24:58;11.50;99.40
42841;DHT22;28491;46.898;7.660;2023-10-08T03:27:30;11.40;98.80
42841;DHT22;28491;46.898;7.660;2023-10-08T03:30:01;11.40;1.00
42841;DHT22;28491;46.898;7.660;2023-10-08T03:32:27;11.40;1.00
42841;DHT22;28491;46.898;7.660;2023-10-08T03:34:59;11.40;1.00
42841;DHT22;28491;46.898;7.660;2023-10-08T03:37:25;11.40;1.00
42841;DHT22;28491;46.898;7.660;2023-10-08T03:40:06;11.50;1.00
42841;DHT22;28491;46.898;7.660;2023-10-08T03:42:51;11.40;1.00
42841;DHT22;28491;46.898;7.660;2023-10-08T03:45:16;11.40;1.00
42841;DHT22;28491;46.898;7.660;2023-10-08T03:48:02;11.30;1.00
42841;DHT22;28491;46.898;7.660;2023-10-08T03:50:31;11.30;1.00
42841;DHT22;28491;46.898;7.660;2023-10-08T03:53:07;11.30;99.90
42841;DHT22;28491;46.898;7.660;2023-10-08T03:55:38;11.30;1.00
42841;DHT22;28491;46.898;7.660;2023-10-08T03:58:09;11.10;1.00
42841;DHT22;28491;46.898;7.660;2023-10-08T04:01:07;11.20;71.50
42841;DHT22;28491;46.898;7.660;2023-10-08T04:03:36;11.20;61.20
42841;DHT22;28491;46.898;7.660;2023-10-08T04:06:28;11.10;1.00
42841;DHT22;28491;46.898;7.660;2023-10-08T04:08:56;11.10;37.00
42841;DHT22;28491;46.898;7.660;2023-10-08T04:11:37;11.10;1.00
42841;DHT22;28491;46.898;7.660;2023-10-08T04:14:20;11.10;11.70
42841;DHT22;28491;46.898;7.660;2023-10-08T04:16:46;11.20;1.00
42841;DHT22;28491;46.898;7.660;2023-10-08T04:19:11;11.10;13.20
42841;DHT22;28491;46.898;7.660;2023-10-08T04:21:37;11.30;1.00
42841;DHT22;28491;46.898;7.660;2023-10-08T04:24:05;11.40;1.00
42841;DHT22;28491;46.898;7.660;2023-10-08T04:26:36;11.30;1.00
42841;DHT22;28491;46.898;7.660;2023-10-08T04:29:05;11.30;1.00
42841;DHT22;28491;46.898;7.660;2023-10-08T04:31:34;11.30;1.00
42841;DHT22;28491;46.898;7.660;2023-10-08T04:34:03;11.20;1.00
42841;DHT22;28491;46.898;7.660;2023-10-08T04:36:35;11.30;1.00
42841;DHT22;28491;46.898;7.660;2023-10-08T04:39:04;11.30;70.90
42841;DHT22;28491;46.898;7.660;2023-10-08T04:41:39;11.30;42.60
42841;DHT22;28491;46.898;7.660;2023-10-08T04:44:11;11.50;5.50
42841;DHT22;28491;46.898;7.660;2023-10-08T04:46:41;11.30;1.00
42841;DHT22;28491;46.898;7.660;2023-10-08T04:49:15;11.30;6.90
42841;DHT22;28491;46.898;7.660;2023-10-08T04:51:54;11.30;1.00
42841;DHT22;28491;46.898;7.660;2023-10-08T04:54:28;11.30;1.00
42841;DHT22;28491;46.898;7.660;2023-10-08T04:57:00;11.30;1.00
42841;DHT22;28491;46.898;7.660;2023-10-08T04:59:27;11.20;1.00
42841;DHT22;28491;46.898;7.660;2023-10-08T05:02:01;11.20;1.00
42841;DHT22;28491;46.898;7.660;2023-10-08T05:04:39;11.20;1.00
42841;DHT22;28491;46.898;7.660;2023-10-08T05:07:12;11.10;1.00
42841;DHT22;28491;46.898;7.660;2023-10-08T05:10:06;11.00;33.20
42841;DHT22;28491;46.898;7.660;2023-10-08T05:12:31;10.90;19.60
42841;DHT22;28491;46.898;7.660;2023-10-08T05:15:03;10.90;72.70
42841;DHT22;28491;46.898;7.660;2023-10-08T05:17:38;10.80;74.90
42841;DHT22;28491;46.898;7.660;2023-10-08T05:20:30;10.80;66.40
42841;DHT22;28491;46.898;7.660;2023-10-08T05:23:14;10.80;72.90
42841;DHT22;28491;46.898;7.660;2023-10-08T05:25:55;10.60;79.50
42841;DHT22;28491;46.898;7.660;2023-10-08T05:28:27;10.70;83.40
42841;DHT22;28491;46.898;7.660;2023-10-08T05:30:54;10.70;91.80
42841;DHT22;28491;46.898;7.660;2023-10-08T05:33:36;10.80;88.10
42841;DHT22;28491;46.898;7.660;2023-10-08T05:36:11;10.90;78.50
42841;DHT22;28491;46.898;7.660;2023-10-08T05:38:43;10.90;64.90
42841;DHT22;28491;46.898;7.660;2023-10-08T05:41:26;10.90;69.60
42841;DHT22;28491;46.898;7.660;2023-10-08T05:44:16;11.00;80.60
42841;DHT22;28491;46.898;7.660;2023-10-08T05:46:44;10.80;39.70
42841;DHT22;28491;46.898;7.660;2023-10-08T05:49:19;10.80;74.50
42841;DHT22;28491;46.898;7.660;2023-10-08T05:51:56;11.00;66.90
42841;DHT22;28491;46.898;7.660;2023-10-08T05:54:25;11.00;64.70
42841;DHT22;28491;46.898;7.660;2023-10-08T05:59:37;11.00;18.20
42841;DHT22;28491;46.898;7.660;2023-10-08T06:04:56;10.80;59.00
42841;DHT22;28491;46.898;7.660;2023-10-08T06:07:41;10.70;70.30
42841;DHT22;28491;46.898;7.660;2023-10-08T06:15:28;10.80;91.40
42841;DHT22;28491;46.898;7.660;2023-10-08T06:18:10;10.70;78.60
42841;DHT22;28491;46.898;7.660;2023-10-08T06:20:36;10.90;92.60
42841;DHT22;28491;46.898;7.660;2023-10-08T06:23:04;10.90;90.60
42841;DHT22;28491;46.898;7.660;2023-10-08T06:25:32;11.00;95.70
42841;DHT22;28491;46.898;7.660;2023-10-08T06:27:58;10.90;87.00
42841;DHT22;28491;46.898;7.660;2023-10-08T06:30:24;10.80;91.70
42841;DHT22;28491;46.898;7.660;2023-10-08T06:32:54;10.90;91.10
42841;DHT22;28491;46.898;7.660;2023-10-08T06:35:20;10.90;94.10
42841;DHT22;28491;46.898;7.660;2023-10-08T06:37:50;10.90;92.90
42841;DHT22;28491;46.898;7.660;2023-10-08T06:40:20;11.00;92.40
42841;DHT22;28491;46.898;7.660;2023-10-08T06:43:03;11.00;87.90
42841;DHT22;28491;46.898;7.660;2023-10-08T06:45:40;11.10;91.90
42841;DHT22;28491;46.898;7.660;2023-10-08T06:48:06;11.10;92.70
42841;DHT22;28491;46.898;7.660;2023-10-08T06:50:32;11.20;94.10
42841;DHT22;28491;46.898;7.660;2023-10-08T06:52:59;11.20;94.60
42841;DHT22;28491;46.898;7.660;2023-10-08T06:55:26;11.20;95.90
42841;DHT22;28491;46.898;7.660;2023-10-08T06:57:52;11.20;94.90
42841;DHT22;28491;46.898;7.660;2023-10-08T07:00:17;11.40;96.70
42841;DHT22;28491;46.898;7.660;2023-10-08T07:03:03;11.30;96.80
42841;DHT22;28491;46.898;7.660;2023-10-08T07:05:29;11.40;97.90
42841;DHT22;28491;46.898;7.660;2023-10-08T07:07:54;11.40;96.50
42841;DHT22;28491;46.898;7.660;2023-10-08T07:10:19;11.50;94.90
42841;DHT22;28491;46.898;7.660;2023-10-08T07:12:48;11.50;94.30
42841;DHT22;28491;46.898;7.660;2023-10-08T07:15:15;11.50;92.70
42841;DHT22;28491;46.898;7.660;2023-10-08T07:17:46;11.60;91.50
42841;DHT22;28491;46.898;7.660;2023-10-08T07:20:13;11.60;89.00
42841;DHT22;28491;46.898;7.660;2023-10-08T07:22:46;11.70;88.10
42841;DHT22;28491;46.898;7.660;2023-10-08T07:25:15;11.70;90.00
42841;DHT22;28491;46.898;7.660;2023-10-08T07:27:46;11.80;89.00
42841;DHT22;28491;46.898;7.660;2023-10-08T07:30:12;11.80;83.80
42841;DHT22;28491;46.898;7.660;2023-10-08T07:32:38;11.90;82.40
42841;DHT22;28491;46.898;7.660;2023-10-08T07:35:04;11.90;80.80
42841;DHT22;28491;46.898;7.660;2023-10-08T07:37:45;11.90;79.60
42841;DHT22;28491;46.898;7.660;2023-10-08T07:40:12;12.00;79.70
42841;DHT22;28491;46.898;7.660;2023-10-08T07:42:38;12.00;88.00
42841;DHT22;28491;46.898;7.660;2023-10-08T07:45:04;12.00;86.10
42841;DHT22;28491;46.898;7.660;2023-10-08T07:47:30;12.10;88.40
42841;DHT22;28491;46.898;7.660;2023-10-08T07:49:55;12.10;87.70
42841;DHT22;28491;46.898;7.660;2023-10-08T07:52:21;12.10;96.10
42841;DHT22;28491;46.898;7.660;2023-10-08T07:54:47;12.20;97.40
42841;DHT22;28491;46.898;7.660;2023-10-08T07:57:13;12.30;94.70
42841;DHT22;28491;46.898;7.660;2023-10-08T07:59:42;12.30;90.00
42841;DHT22;28491;46.898;7.660;2023-10-08T08:02:23;12.40;80.80
42841;DHT22;28491;46.898;7.660;2023-10-08T08:04:52;12.40;74.20
42841;DHT22;28491;46.898;7.660;2023-10-08T08:07:18;12.40;62.70
42841;DHT22;28491;46.898;7.660;2023-10-08T08:09:44;12.40;1.00
42841;DHT22;28491;46.898;7.660;2023-10-08T08:12:22;12.40;1.00
42841;DHT22;28491;46.898;7.660;2023-10-08T08:14:47;12.50;1.00
42841;DHT22;28491;46.898;7.660;2023-10-08T08:17:13;12.40;1.00
42841;DHT22;28491;46.898;7.660;2023-10-08T08:19:43;12.60;1.00
42841;DHT22;28491;46.898;7.660;2023-10-08T08:22:10;12.60;27.50
42841;DHT22;28491;46.898;7.660;2023-10-08T08:24:43;12.60;68.80
42841;DHT22;28491;46.898;7.660;2023-10-08T08:27:13;12.60;70.00
42841;DHT22;28491;46.898;7.660;2023-10-08T08:29:52;12.70;68.90
42841;DHT22;28491;46.898;7.660;2023-10-08T08:32:24;12.70;64.30
42841;DHT22;28491;46.898;7.660;2023-10-08T08:34:49;12.60;34.90
42841;DHT22;28491;46.898;7.660;2023-10-08T08:37:18;12.80;11.40
42841;DHT22;28491;46.898;7.660;2023-10-08T08:39:43;12.80;1.00
42841;DHT22;28491;46.898;7.660;2023-10-08T08:42:09;12.80;1.00
42841;DHT22;28491;46.898;7.660;2023-10-08T08:44:36;12.90;1.00
42841;DHT22;28491;46.898;7.660;2023-10-08T08:47:13;13.00;1.00
42841;DHT22;28491;46.898;7.660;2023-10-08T08:49:45;13.00;1.00
42841;DHT22;28491;46.898;7.660;2023-10-08T08:52:11;13.00;1.00
42841;DHT22;28491;46.898;7.660;2023-10-08T08:54:38;13.10;1.00
42841;DHT22;28491;46.898;7.660;2023-10-08T08:57:04;13.20;1.00
42841;DHT22;28491;46.898;7.660;2023-10-08T08:59:31;13.20;1.00
42841;DHT22;28491;46.898;7.660;2023-10-08T09:01:57;13.40;99.90
42841;DHT22;28491;46.898;7.660;2023-10-08T09:04:31;13.50;99.90
42841;DHT22;28491;46.898;7.660;2023-10-08T09:07:00;13.50;98.90
42841;DHT22;28491;46.898;7.660;2023-10-08T09:09:33;13.60;99.90
42841;DHT22;28491;46.898;7.660;2023-10-08T09:11:58;13.70;1.00
42841;DHT22;28491;46.898;7.660;2023-10-08T09:14:25;13.70;1.00
42841;DHT22;28491;46.898;7.660;2023-10-08T09:16:57;13.80;26.70
42841;DHT22;28491;46.898;7.660;2023-10-08T09:19:24;13.90;61.50
42841;DHT22;28491;46.898;7.660;2023-10-08T09:24:36;13.90;88.00
42841;DHT22;28491;46.898;7.660;2023-10-08T09:27:05;14.00;86.60
42841;DHT22;28491;46.898;7.660;2023-10-08T09:29:31;14.00;82.90
42841;DHT22;28491;46.898;7.660;2023-10-08T09:31:58;14.10;77.40
42841;DHT22;28491;46.898;7.660;2023-10-08T09:34:30;14.00;76.60
42841;DHT22;28491;46.898;7.660;2023-10-08T09:36:55;14.20;93.40
42841;DHT22;28491;46.898;7.660;2023-10-08T09:39:21;14.30;95.60
42841;DHT22;28491;46.898;7.660;2023-10-08T09:42:01;14.50;74.10
42841;DHT22;28491;46.898;7.660;2023-10-08T09:44:28;14.50;62.10
42841;DHT22;28491;46.898;7.660;2023-10-08T09:46:57;14.60;5.30
42841;DHT22;28491;46.898;7.660;2023-10-08T09:49:29;14.80;1.00
42841;DHT22;28491;46.898;7.660;2023-10-08T09:51:58;14.90;1.00
42841;DHT22;28491;46.898;7.660;2023-10-08T09:54:28;15.00;45.50
42841;DHT22;28491;46.898;7.660;2023-10-08T09:56:57;15.00;64.70
42841;DHT22;28491;46.898;7.660;2023-10-08T09:59:24;15.10;69.10
42841;DHT22;28491;46.898;7.660;2023-10-08T10:01:51;15.10;60.40
42841;DHT22;28491;46.898;7.660;2023-10-08T10:04:24;15.20;65.10
42841;DHT22;28491;46.898;7.660;2023-10-08T10:06:50;15.30;63.30
42841;DHT22;28491;46.898;7.660;2023-10-08T10:09:25;15.30;1.00
42841;DHT22;28491;46.898;7.660;2023-10-08T10:11:51;15.30;1.00
42841;DHT22;28491;46.898;7.660;2023-10-08T10:14:23;15.30;95.30
42841;DHT22;28491;46.898;7.660;2023-10-08T10:17:05;15.40;92.90
42841;DHT22;28491;46.898;7.660;2023-10-08T10:19:34;15.40;91.10
42841;DHT22;28491;46.898;7.660;2023-10-08T10:22:01;15.40;99.20
42841;DHT22;28491;46.898;7.660;2023-10-08T10:24:37;15.40;1.00
42841;DHT22;28491;46.898;7.660;2023-10-08T10:27:09;15.40;99.90
42841;DHT22;28491;46.898;7.660;2023-10-08T10:29:36;15.40;1.00
42841;DHT22;28491;46.898;7.660;2023-10-08T10:32:01;15.40;99.00
42841;DHT22;28491;46.898;7.660;2023-10-08T10:34:27;15.40;95.00
42841;DHT22;28491;46.898;7.660;2023-10-08T10:36:53;15.50;92.10
42841;DHT22;28491;46.898;7.660;2023-10-08T10:39:24;15.40;91.90
42841;DHT22;28491;46.898;7.660;2023-10-08T10:41:55;15.50;94.70
42841;DHT22;28491;46.898;7.660;2023-10-08T10:44:27;15.40;1.00
42841;DHT22;28491;46.898;7.660;2023-10-08T10:46:52;15.50;1.00
42841;DHT22;28491;46.898;7.660;2023-10-08T10:49:38;15.60;99.80
42841;DHT22;28491;46.898;7.660;2023-10-08T10:52:13;15.60;94.80
42841;DHT22;28491;46.898;7.660;2023-10-08T10:54:51;15.60;96.30
42841;DHT22;28491;46.898;7.660;2023-10-08T10:57:26;15.80;74.00
42841;DHT22;28491;46.898;7.660;2023-10-08T11:00:06;15.80;62.80
42841;DHT22;28491;46.898;7.660;2023-10-08T11:02:50;16.00;1.00
42841;DHT22;28491;46.898;7.660;2023-10-08T11:05:16;16.00;1.00
42841;DHT22;28491;46.898;7.660;2023-10-08T11:07:46;16.10;1.00
42841;DHT22;28491;46.898;7.660;2023-10-08T11:10:12;16.00;1.00
42841;DHT22;28491;46.898;7.660;2023-10-08T11:12:41;16.20;1.00
42841;DHT22;28491;46.898;7.660;2023-10-08T11:15:13;16.30;15.50
42841;DHT22;28491;46.898;7.660;2023-10-08T11:17:41;16.40;10.80
42841;DHT22;28491;46.898;7.660;2023-10-08T11:20:28;16.50;1.00
42841;DHT22;28491;46.898;7.660;2023-10-08T11:22:52;16.50;1.00
42841;DHT22;28491;46.898;7.660;2023-10-08T11:25:22;16.50;1.70
42841;DHT22;28491;46.898;7.660;2023-10-08T11:27:56;16.50;66.20
42841;DHT22;28491;46.898;7.660;2023-10-08T11:30:28;16.60;73.80
42841;DHT22;28491;46.898;7.660;2023-10-08T11:32:57;16.80;88.50
42841;DHT22;28491;46.898;7.660;2023-10-08T11:35:24;16.80;77.10
42841;DHT22;28491;46.898;7.660;2023-10-08T11:37:52;16.90;23.40
42841;DHT22;28491;46.898;7.660;2023-10-08T11:40:26;16.90;1.00
42841;DHT22;28491;46.898;7.660;2023-10-08T11:43:11;16.90;41.10
42841;DHT22;28491;46.898;7.660;2023-10-08T11:45:43;16.90;7.70
42841;DHT22;28491;46.898;7.660;2023-10-08T11:48:16;16.90;63.30
42841;DHT22;28491;46.898;7.660;2023-10-08T11:50:47;16.90;67.30
42841;DHT22;28491;46.898;7.660;2023-10-08T11:53:15;17.00;24.90
42841;DHT22;28491;46.898;7.660;2023-10-08T11:55:41;17.10;1.00
42841;DHT22;28491;46.898;7.660;2023-10-08T11:58:07;17.30;1.00
42841;DHT22;28491;46.898;7.660;2023-10-08T12:00:37;17.40;1.00
42841;DHT22;28491;46.898;7.660;2023-10-08T12:03:12;17.40;1.00
42841;DHT22;28491;46.898;7.660;2023-10-08T12:05:38;17.40;1.00
42841;DHT22;28491;46.898;7.660;2023-10-08T12:08:13;17.50;1.00
42841;DHT22;28491;46.898;7.660;2023-10-08T12:10:39;17.60;94.70
42841;DHT22;28491;46.898;7.660;2023-10-08T12:13:06;17.60;95.20
42841;DHT22;28491;46.898;7.660;2023-10-08T12:15:31;17.80;89.90
42841;DHT22;28491;46.898;7.660;2023-10-08T12:18:04;17.90;90.40
42841;DHT22;28491;46.898;7.660;2023-10-08T12:20:50;17.90;97.70
42841;DHT22;28491;46.898;7.660;2023-10-08T12:23:16;18.00;99.90
42841;DHT22;28491;46.898;7.660;2023-10-08T12:25:53;18.10;96.00
42841;DHT22;28491;46.898;7.660;2023-10-08T12:28:21;18.30;92.30
42841;DHT22;28491;46.898;7.660;2023-10-08T12:30:49;18.30;80.80
42841;DHT22;28491;46.898;7.660;2023-10-08T12:33:20;18.30;86.60
42841;DHT22;28491;46.898;7.660;2023-10-08T12:35:47;18.40;79.90
42841;DHT22;28491;46.898;7.660;2023-10-08T12:38:13;18.50;82.60
42841;DHT22;28491;46.898;7.660;2023-10-08T12:40:42;18.50;76.20
42841;DHT22;28491;46.898;7.660;2023-10-08T12:43:14;18.60;79.50
42841;DHT22;28491;46.898;7.660;2023-10-08T12:45:45;18.60;86.40
42841;DHT22;28491;46.898;7.660;2023-10-08T12:48:10;18.40;94.10
42841;DHT22;28491;46.898;7.660;2023-10-08T12:50:39;18.30;91.00
42841;DHT22;28491;46.898;7.660;2023-10-08T12:53:08;18.40;87.30
42841;DHT22;28491;46.898;7.660;2023-10-08T12:55:37;18.40;82.50
42841;DHT22;28491;46.898;7.660;2023-10-08T12:58:07;18.30;82.90
42841;DHT22;28491;46.898;7.660;2023-10-08T13:00:36;18.30;83.70
42841;DHT22;28491;46.898;7.660;2023-10-08T13:03:03;18.30;85.20
42841;DHT22;28491;46.898;7.660;2023-10-08T13:05:31;18.40;83.90
42841;DHT22;28491;46.898;7.660;2023-10-08T13:07:58;18.40;85.30
42841;DHT22;28491;46.898;7.660;2023-10-08T13:10:28;18.50;92.10
42841;DHT22;28491;46.898;7.660;2023-10-08T13:12:56;18.50;91.10
42841;DHT22;28491;46.898;7.660;2023-10-08T13:15:22;18.40;90.10
42841;DHT22;28491;46.898;7.660;2023-10-08T13:17:54;18.40;93.00
42841;DHT22;28491;46.898;7.660;2023-10-08T13:20:19;18.40;93.50
42841;DHT22;28491;46.898;7.660;2023-10-08T13:22:46;18.30;96.10
42841;DHT22;28491;46.898;7.660;2023-10-08T13:25:12;18.30;99.30
42841;DHT22;28491;46.898;7.660;2023-10-08T13:27:38;18.30;92.20
42841;DHT22;28491;46.898;7.660;2023-10-08T13:30:07;18.40;97.00
42841;DHT22;28491;46.898;7.660;2023-10-08T13:32:36;18.50;98.30
42841;DHT22;28491;46.898;7.660;2023-10-08T13:35:03;18.50;99.90
42841;DHT22;28491;46.898;7.660;2023-10-08T13:37:31;18.60;99.90
42841;DHT22;28491;46.898;7.660;2023-10-08T13:39:56;18.70;96.50
42841;DHT22;28491;46.898;7.660;2023-10-08T13:42:22;18.70;97.40
42841;DHT22;28491;46.898;7.660;2023-10-08T13:44:47;18.70;96.80
42841;DHT22;28491;46.898;7.660;2023-10-08T13:47:13;18.70;99.90
42841;DHT22;28491;46.898;7.660;2023-10-08T13:49:40;18.70;99.90
42841;DHT22;28491;46.898;7.660;2023-10-08T13:52:08;18.70;99.90
42841;DHT22;28491;46.898;7.660;2023-10-08T13:54:34;18.70;99.90
42841;DHT22;28491;46.898;7.660;2023-10-08T13:57:04;18.70;99.90
42841;DHT22;28491;46.898;7.660;2023-10-08T13:59:34;18.60;1.00
42841;DHT22;28491;46.898;7.660;2023-10-08T14:01:59;18.70;1.00
42841;DHT22;28491;46.898;7.660;2023-10-08T14:04:27;18.70;1.00
42841;DHT22;28491;46.898;7.660;2023-10-08T14:06:55;18.80;99.90
42841;DHT22;28491;46.898;7.660;2023-10-08T14:09:23;18.80;97.10
42841;DHT22;28491;46.898;7.660;2023-10-08T14:12:02;18.80;97.00
42841;DHT22;28491;46.898;7.660;2023-10-08T14:14:27;19.00;98.70
42841;DHT22;28491;46.898;7.660;2023-10-08T14:16:56;19.20;98.70
42841;DHT22;28491;46.898;7.660;2023-10-08T14:19:25;19.30;96.30
42841;DHT22;28491;46.898;7.660;2023-10-08T14:22:06;19.20;97.50
42841;DHT22;28491;46.898;7.660;2023-10-08T14:24:34;19.10;94.70
42841;DHT22;28491;46.898;7.660;2023-10-08T14:27:04;19.10;96.00
42841;DHT22;28491;46.898;7.660;2023-10-08T14:29:41;19.10;99.40
42841;DHT22;28491;46.898;7.660;2023-10-08T14:32:09;19.00;98.10
42841;DHT22;28491;46.898;7.660;2023-10-08T14:34:35;18.90;1.00
42841;DHT22;28491;46.898;7.660;2023-10-08T14:37:19;18.90;1.00
42841;DHT22;28491;46.898;7.660;2023-10-08T14:40:03;18.80;1.00
42841;DHT22;28491;46.898;7.660;2023-10-08T14:42:47;18.70;1.00
42841;DHT22;28491;46.898;7.660;2023-10-08T14:45:23;18.70;1.00
42841;DHT22;28491;46.898;7.660;2023-10-08T14:47:54;18.50;61.80
42841;DHT22;28491;46.898;7.660;2023-10-08T14:50:20;18.40;71.70
42841;DHT22;28491;46.898;7.660;2023-10-08T14:52:47;18.30;84.40
42841;DHT22;28491;46.898;7.660;2023-10-08T14:55:12;18.20;97.60
42841;DHT22;28491;46.898;7.660;2023-10-08T14:57:39;18.10;1.00
42841;DHT22;28491;46.898;7.660;2023-10-08T15:00:05;18.10;1.00
42841;DHT22;28491;46.898;7.660;2023-10-08T15:02:31;18.00;1.00
42841;DHT22;28491;46.898;7.660;2023-10-08T15:04:58;17.90;25.50
42841;DHT22;28491;46.898;7.660;2023-10-08T15:07:29;17.90;61.90
42841;DHT22;28491;46.898;7.660;2023-10-08T15:09:54;17.80;66.50
42841;DHT22;28491;46.898;7.660;2023-10-08T15:12:32;17.80;71.30
42841;DHT22;28491;46.898;7.660;2023-10-08T15:15:00;17.80;73.90
42841;DHT22;28491;46.898;7.660;2023-10-08T15:17:26;17.70;75.10
42841;DHT22;28491;46.898;7.660;2023-10-08T15:19:51;17.70;79.00
42841;DHT22;28491;46.898;7.660;2023-10-08T15:22:17;17.70;81.10
42841;DHT22;28491;46.898;7.660;2023-10-08T15:24:42;17.70;83.30
42841;DHT22;28491;46.898;7.660;2023-10-08T15:27:08;17.60;85.40
42841;DHT22;28491;46.898;7.660;2023-10-08T15:29:35;17.60;89.50
42841;DHT22;28491;46.898;7.660;2023-10-08T15:32:02;17.60;92.10
42841;DHT22;28491;46.898;7.660;2023-10-08T15:34:28;17.60;92.70
42841;DHT22;28491;46.898;7.660;2023-10-08T15:36:54;17.60;94.90
42841;DHT22;28491;46.898;7.660;2023-10-08T15:39:19;17.60;97.30
42841;DHT22;28491;46.898;7.660;2023-10-08T15:41:51;17.60;98.60
42841;DHT22;28491;46.898;7.660;2023-10-08T15:44:17;17.60;99.50
42841;DHT22;28491;46.898;7.660;2023-10-08T15:46:52;17.50;99.90
42841;DHT22;28491;46.898;7.660;2023-10-08T15:49:21;17.50;99.90
42841;DHT22;28491;46.898;7.660;2023-10-08T15:51:46;17.60;99.90
42841;DHT22;28491;46.898;7.660;2023-10-08T15:54:12;17.60;99.90
42841;DHT22;28491;46.898;7.660;2023-10-08T15:56:37;17.60;1.00
42841;DHT22;28491;46.898;7.660;2023-10-08T15:59:03;17.60;99.90
42841;DHT22;28491;46.898;7.660;2023-10-08T16:01:29;17.60;99.90
42841;DHT22;28491;46.898;7.660;2023-10-08T16:03:54;17.60;1.00
42841;DHT22;28491;46.898;7.660;2023-10-08T16:06:20;17.50;1.00
42841;DHT22;28491;46.898;7.660;2023-10-08T16:08:46;17.60;1.00
42841;DHT22;28491;46.898;7.660;2023-10-08T16:11:14;17.70;1.00